sensor_id;sensor_type;location;lat;lon;timestamp;P1;durP1;ratioP1;P2;durP2;ratioP2
12970;SDS011;6550;48.650;8.774;2024-03-23T00:54:52;3.03;;;2.27;;
12970;SDS011;6550;48.650;8.774;2024-03-23T00:57:18;4.20;;;2.00;;
12970;SDS011;6550;48.650;8.774;2024-03-23T00:59:49;2.60;;;2.00;;
12970;SDS011;6550;48.650;8.774;2024-03-23T01:02:17;2.57;;;2.37;;
12970;SDS011;6550;48.650;8.774;2024-03-23T01:04:42;3.13;;;1.83;;
12970;SDS011;6550;48.650;8.774;2024-03-23T01:07:08;2.60;;;2.00;;
12970;SDS011;6550;48.650;8.774;2024-03-23T01:09:36;1.93;;;1.80;;
12970;SDS011;6550;48.650;8.774;2024-03-23T01:12:04;2.70;;;2.50;;
12970;SDS011;6550;48.650;8.774;2024-03-23T01:14:33;5.70;;;2.17;;
12970;SDS011;6550;48.650;8.774;2024-03-23T01:17:00;2.42;;;2.20;;
12970;SDS011;6550;48.650;8.774;2024-03-23T01:19:28;3.10;;;1.73;;
12970;SDS011;6550;48.650;8.774;2024-03-23T01:21:54;2.40;;;2.10;;
12970;SDS011;6550;48.650;8.774;2024-03-23T01:24:22;1.97;;;1.87;;
12970;SDS011;6550;48.650;8.774;2024-03-23T01:26:50;2.00;;;1.90;;
12970;SDS011;6550;48.650;8.774;2024-03-23T01:29:18;3.07;;;2.10;;
12970;SDS011;6550;48.650;8.774;2024-03-23T01:31:46;3.33;;;1.90;;
12970;SDS011;6550;48.650;8.774;2024-03-23T01:34:12;2.67;;;1.87;;
12970;SDS011;6550;48.650;8.774;2024-03-23T01:36:38;2.13;;;1.93;;
12970;SDS011;6550;48.650;8.774;2024-03-23T01:39:06;2.40;;;2.20;;
12970;SDS011;6550;48.650;8.774;2024-03-23T01:41:35;3.20;;;2.35;;
12970;SDS011;6550;48.650;8.774;2024-03-23T01:44:03;3.20;;;2.20;;
12970;SDS011;6550;48.650;8.774;2024-03-23T01:46:36;2.07;;;1.93;;
12970;SDS011;6550;48.650;8.774;2024-03-23T01:49:07;2.27;;;2.07;;
12970;SDS011;6550;48.650;8.774;2024-03-23T01:51:34;3.13;;;2.03;;
12970;SDS011;6550;48.650;8.774;2024-03-23T01:54:01;2.30;;;2.10;;
12970;SDS011;6550;48.650;8.774;2024-03-23T01:56:32;2.03;;;1.83;;
12970;SDS011;6550;48.650;8.774;2024-03-23T01:59:09;2.20;;;2.00;;
12970;SDS011;6550;48.650;8.774;2024-03-23T02:01:38;2.30;;;2.10;;
12970;SDS011;6550;48.650;8.774;2024-03-23T02:04:06;2.67;;;2.00;;
12970;SDS011;6550;48.650;8.774;2024-03-23T02:06:32;2.90;;;2.00;;
12970;SDS011;6550;48.650;8.774;2024-03-23T02:08:58;4.43;;;2.20;;
12970;SDS011;6550;48.650;8.774;2024-03-23T02:11:25;2.47;;;2.07;;
12970;SDS011;6550;48.650;8.774;2024-03-23T02:13:56;2.13;;;1.93;;
12970;SDS011;6550;48.650;8.774;2024-03-23T02:16:24;2.20;;;2.00;;
12970;SDS011;6550;48.650;8.774;2024-03-23T02:18:49;2.20;;;2.00;;
12970;SDS011;6550;48.650;8.774;2024-03-23T02:21:20;2.20;;;2.00;;
12970;SDS011;6550;48.650;8.774;2024-03-23T02:23:48;3.13;;;2.03;;
12970;SDS011;6550;48.650;8.774;2024-03-23T02:26:14;2.00;;;1.90;;
12970;SDS011;6550;48.650;8.774;2024-03-23T02:28:40;3.37;;;1.90;;
12970;SDS011;6550;48.650;8.774;2024-03-23T02:31:06;2.20;;;2.00;;
12970;SDS011;6550;48.650;8.774;2024-03-23T02:33:32;2.30;;;2.00;;
12970;SDS011;6550;48.650;8.774;2024-03-23T02:36:03;2.30;;;2.10;;
12970;SDS011;6550;48.650;8.774;2024-03-23T02:38:29;3.40;;;2.10;;
12970;SDS011;6550;48.650;8.774;2024-03-23T02:41:01;2.20;;;2.00;;
12970;SDS011;6550;48.650;8.774;2024-03-23T02:43:28;2.60;;;1.90;;
12970;SDS011;6550;48.650;8.774;2024-03-23T02:45:54;2.13;;;1.97;;
12970;SDS011;6550;48.650;8.774;2024-03-23T02:48:20;2.17;;;1.87;;
12970;SDS011;6550;48.650;8.774;2024-03-23T02:50:46;3.50;;;1.90;;
12970;SDS011;6550;48.650;8.774;2024-03-23T02:53:12;1.80;;;1.67;;
12970;SDS011;6550;48.650;8.774;2024-03-23T02:55:40;2.13;;;1.93;;
12970;SDS011;6550;48.650;8.774;2024-03-23T02:58:05;2.03;;;1.87;;
12970;SDS011;6550;48.650;8.774;2024-03-23T03:00:36;2.00;;;1.90;;
12970;SDS011;6550;48.650;8.774;2024-03-23T03:03:02;2.30;;;2.10;;
12970;SDS011;6550;48.650;8.774;2024-03-23T03:05:28;2.40;;;1.87;;
12970;SDS011;6550;48.650;8.774;2024-03-23T03:07:54;2.53;;;2.17;;
12970;SDS011;6550;48.650;8.774;2024-03-23T03:10:20;3.10;;;1.97;;
12970;SDS011;6550;48.650;8.774;2024-03-23T03:12:48;2.50;;;2.30;;
12970;SDS011;6550;48.650;8.774;2024-03-23T03:15:16;1.80;;;1.70;;
12970;SDS011;6550;48.650;8.774;2024-03-23T03:17:42;2.03;;;1.83;;
12970;SDS011;6550;48.650;8.774;2024-03-23T03:20:08;2.07;;;1.77;;
12970;SDS011;6550;48.650;8.774;2024-03-23T03:22:40;1.97;;;1.70;;
12970;SDS011;6550;48.650;8.774;2024-03-23T03:25:06;2.22;;;2.03;;
12970;SDS011;6550;48.650;8.774;2024-03-23T03:27:34;1.93;;;1.73;;
12970;SDS011;6550;48.650;8.774;2024-03-23T03:30:02;2.30;;;2.10;;
12970;SDS011;6550;48.650;8.774;2024-03-23T03:32:31;2.27;;;1.90;;
12970;SDS011;6550;48.650;8.774;2024-03-23T03:34:58;2.00;;;1.80;;
12970;SDS011;6550;48.650;8.774;2024-03-23T03:37:24;2.00;;;1.80;;
12970;SDS011;6550;48.650;8.774;2024-03-23T03:39:52;3.00;;;1.63;;
12970;SDS011;6550;48.650;8.774;2024-03-23T03:42:18;3.57;;;1.90;;
12970;SDS011;6550;48.650;8.774;2024-03-23T03:44:43;2.63;;;1.90;;
12970;SDS011;6550;48.650;8.774;2024-03-23T03:47:11;2.40;;;2.00;;
12970;SDS011;6550;48.650;8.774;2024-03-23T03:49:37;1.90;;;1.80;;
12970;SDS011;6550;48.650;8.774;2024-03-23T03:52:03;1.80;;;1.70;;
12970;SDS011;6550;48.650;8.774;2024-03-23T03:54:34;3.37;;;1.80;;
12970;SDS011;6550;48.650;8.774;2024-03-23T03:57:00;1.90;;;1.80;;
12970;SDS011;6550;48.650;8.774;2024-03-23T03:59:30;1.67;;;1.57;;
12970;SDS011;6550;48.650;8.774;2024-03-23T04:01:56;4.03;;;2.30;;
12970;SDS011;6550;48.650;8.774;2024-03-23T04:04:24;2.67;;;1.87;;
12970;SDS011;6550;48.650;8.774;2024-03-23T04:06:50;2.03;;;1.93;;
12970;SDS011;6550;48.650;8.774;2024-03-23T04:09:23;3.13;;;2.33;;
12970;SDS011;6550;48.650;8.774;2024-03-23T04:11:50;2.10;;;1.90;;
12970;SDS011;6550;48.650;8.774;2024-03-23T04:14:19;2.87;;;2.10;;
12970;SDS011;6550;48.650;8.774;2024-03-23T04:16:45;1.80;;;1.70;;
12970;SDS011;6550;48.650;8.774;2024-03-23T04:19:11;3.63;;;2.17;;
12970;SDS011;6550;48.650;8.774;2024-03-23T04:21:39;1.67;;;1.57;;
12970;SDS011;6550;48.650;8.774;2024-03-23T04:24:05;2.07;;;1.90;;
12970;SDS011;6550;48.650;8.774;2024-03-23T04:26:41;1.80;;;1.70;;
12970;SDS011;6550;48.650;8.774;2024-03-23T04:29:12;2.07;;;1.87;;
12970;SDS011;6550;48.650;8.774;2024-03-23T04:31:42;2.23;;;1.87;;
12970;SDS011;6550;48.650;8.774;2024-03-23T04:34:08;2.50;;;2.27;;
12970;SDS011;6550;48.650;8.774;2024-03-23T04:36:34;2.47;;;2.20;;
12970;SDS011;6550;48.650;8.774;2024-03-23T04:39:02;2.43;;;2.13;;
12970;SDS011;6550;48.650;8.774;2024-03-23T04:41:30;2.40;;;2.13;;
12970;SDS011;6550;48.650;8.774;2024-03-23T04:43:56;2.43;;;2.23;;
12970;SDS011;6550;48.650;8.774;2024-03-23T04:46:22;2.60;;;2.40;;
12970;SDS011;6550;48.650;8.774;2024-03-23T04:48:48;3.33;;;2.63;;
12970;SDS011;6550;48.650;8.774;2024-03-23T04:51:20;3.77;;;2.63;;
12970;SDS011;6550;48.650;8.774;2024-03-23T04:53:49;3.27;;;2.90;;
12970;SDS011;6550;48.650;8.774;2024-03-23T04:56:15;4.30;;;2.63;;
12970;SDS011;6550;48.650;8.774;2024-03-23T04:58:42;4.00;;;2.37;;
12970;SDS011;6550;48.650;8.774;2024-03-23T05:01:10;4.67;;;3.03;;
12970;SDS011;6550;48.650;8.774;2024-03-23T05:03:39;4.40;;;3.23;;
12970;SDS011;6550;48.650;8.774;2024-03-23T05:06:05;3.77;;;2.80;;
12970;SDS011;6550;48.650;8.774;2024-03-23T05:08:33;3.90;;;3.15;;
12970;SDS011;6550;48.650;8.774;2024-03-23T05:10:59;3.20;;;2.90;;
12970;SDS011;6550;48.650;8.774;2024-03-23T05:13:25;4.53;;;3.03;;
12970;SDS011;6550;48.650;8.774;2024-03-23T05:15:53;4.73;;;3.40;;
12970;SDS011;6550;48.650;8.774;2024-03-23T05:18:23;4.40;;;3.33;;
12970;SDS011;6550;48.650;8.774;2024-03-23T05:20:55;3.43;;;3.13;;
12970;SDS011;6550;48.650;8.774;2024-03-23T05:23:22;4.53;;;3.67;;
12970;SDS011;6550;48.650;8.774;2024-03-23T05:25:49;4.03;;;3.63;;
12970;SDS011;6550;48.650;8.774;2024-03-23T05:28:17;3.90;;;3.47;;
12970;SDS011;6550;48.650;8.774;2024-03-23T05:30:43;3.80;;;3.27;;
12970;SDS011;6550;48.650;8.774;2024-03-23T05:33:15;4.20;;;3.73;;
12970;SDS011;6550;48.650;8.774;2024-03-23T05:35:40;4.00;;;2.83;;
12970;SDS011;6550;48.650;8.774;2024-03-23T05:38:06;4.28;;;3.88;;
12970;SDS011;6550;48.650;8.774;2024-03-23T05:40:34;3.67;;;3.27;;
12970;SDS011;6550;48.650;8.774;2024-03-23T05:43:03;3.80;;;3.20;;
12970;SDS011;6550;48.650;8.774;2024-03-23T05:45:31;4.47;;;3.40;;
12970;SDS011;6550;48.650;8.774;2024-03-23T05:47:57;3.87;;;2.90;;
12970;SDS011;6550;48.650;8.774;2024-03-23T05:50:23;3.63;;;3.07;;
12970;SDS011;6550;48.650;8.774;2024-03-23T05:52:49;3.10;;;2.80;;
12970;SDS011;6550;48.650;8.774;2024-03-23T05:55:15;3.17;;;2.70;;
12970;SDS011;6550;48.650;8.774;2024-03-23T05:57:41;2.53;;;2.20;;
12970;SDS011;6550;48.650;8.774;2024-03-23T06:00:11;2.33;;;2.13;;
12970;SDS011;6550;48.650;8.774;2024-03-23T06:02:45;2.70;;;2.00;;
12970;SDS011;6550;48.650;8.774;2024-03-23T06:05:11;2.33;;;1.90;;
12970;SDS011;6550;48.650;8.774;2024-03-23T06:07:37;2.13;;;1.93;;
12970;SDS011;6550;48.650;8.774;2024-03-23T06:10:06;1.67;;;1.57;;
12970;SDS011;6550;48.650;8.774;2024-03-23T06:12:37;1.60;;;1.50;;
12970;SDS011;6550;48.650;8.774;2024-03-23T06:15:03;1.73;;;1.40;;
12970;SDS011;6550;48.650;8.774;2024-03-23T06:17:29;1.40;;;1.30;;
12970;SDS011;6550;48.650;8.774;2024-03-23T06:19:54;1.60;;;1.40;;
12970;SDS011;6550;48.650;8.774;2024-03-23T06:22:20;2.00;;;1.80;;
12970;SDS011;6550;48.650;8.774;2024-03-23T06:24:46;1.37;;;1.27;;
12970;SDS011;6550;48.650;8.774;2024-03-23T06:27:12;1.60;;;1.30;;
12970;SDS011;6550;48.650;8.774;2024-03-23T06:29:40;1.38;;;1.30;;
12970;SDS011;6550;48.650;8.774;2024-03-23T06:32:05;0.90;;;0.90;;
12970;SDS011;6550;48.650;8.774;2024-03-23T06:34:31;1.13;;;0.90;;
12970;SDS011;6550;48.650;8.774;2024-03-23T06:37:00;1.30;;;1.20;;
12970;SDS011;6550;48.650;8.774;2024-03-23T06:39:28;0.80;;;0.80;;
12970;SDS011;6550;48.650;8.774;2024-03-23T06:41:54;1.03;;;0.93;;
12970;SDS011;6550;48.650;8.774;2024-03-23T06:44:20;1.13;;;0.70;;
12970;SDS011;6550;48.650;8.774;2024-03-23T06:46:46;1.00;;;0.80;;
12970;SDS011;6550;48.650;8.774;2024-03-23T06:49:16;0.80;;;0.60;;
12970;SDS011;6550;48.650;8.774;2024-03-23T06:51:44;0.47;;;0.47;;
12970;SDS011;6550;48.650;8.774;2024-03-23T06:54:12;0.70;;;0.57;;
12970;SDS011;6550;48.650;8.774;2024-03-23T06:56:41;1.63;;;0.57;;
12970;SDS011;6550;48.650;8.774;2024-03-23T06:59:07;0.50;;;0.50;;
12970;SDS011;6550;48.650;8.774;2024-03-23T07:01:33;1.33;;;1.00;;
12970;SDS011;6550;48.650;8.774;2024-03-23T07:04:00;0.67;;;0.67;;
12970;SDS011;6550;48.650;8.774;2024-03-23T07:06:26;0.83;;;0.57;;
12970;SDS011;6550;48.650;8.774;2024-03-23T07:08:52;0.60;;;0.60;;
12970;SDS011;6550;48.650;8.774;2024-03-23T07:11:19;0.50;;;0.50;;
12970;SDS011;6550;48.650;8.774;2024-03-23T07:13:51;0.70;;;0.70;;
12970;SDS011;6550;48.650;8.774;2024-03-23T07:16:21;0.70;;;0.50;;
12970;SDS011;6550;48.650;8.774;2024-03-23T07:18:51;0.60;;;0.60;;
12970;SDS011;6550;48.650;8.774;2024-03-23T07:21:17;0.50;;;0.50;;
12970;SDS011;6550;48.650;8.774;2024-03-23T07:23:43;0.50;;;0.50;;
12970;SDS011;6550;48.650;8.774;2024-03-23T07:26:11;0.50;;;0.50;;
12970;SDS011;6550;48.650;8.774;2024-03-23T07:28:37;1.90;;;0.50;;
12970;SDS011;6550;48.650;8.774;2024-03-23T07:31:08;1.10;;;0.70;;
12970;SDS011;6550;48.650;8.774;2024-03-23T07:33:35;1.03;;;0.97;;
12970;SDS011;6550;48.650;8.774;2024-03-23T07:36:12;0.83;;;0.83;;
12970;SDS011;6550;48.650;8.774;2024-03-23T07:38:42;0.70;;;0.70;;
12970;SDS011;6550;48.650;8.774;2024-03-23T07:41:19;1.67;;;0.80;;
12970;SDS011;6550;48.650;8.774;2024-03-23T07:43:46;0.67;;;0.67;;
12970;SDS011;6550;48.650;8.774;2024-03-23T07:46:14;0.60;;;0.60;;
12970;SDS011;6550;48.650;8.774;2024-03-23T07:48:40;0.63;;;0.60;;
12970;SDS011;6550;48.650;8.774;2024-03-23T07:51:17;0.50;;;0.50;;
12970;SDS011;6550;48.650;8.774;2024-03-23T07:53:46;0.70;;;0.70;;
12970;SDS011;6550;48.650;8.774;2024-03-23T07:56:14;0.40;;;0.40;;
12970;SDS011;6550;48.650;8.774;2024-03-23T07:58:41;0.30;;;0.30;;
12970;SDS011;6550;48.650;8.774;2024-03-23T08:01:08;0.43;;;0.43;;
12970;SDS011;6550;48.650;8.774;2024-03-23T08:03:41;0.70;;;0.60;;
12970;SDS011;6550;48.650;8.774;2024-03-23T08:06:12;0.50;;;0.50;;
12970;SDS011;6550;48.650;8.774;2024-03-23T08:08:39;0.60;;;0.60;;
12970;SDS011;6550;48.650;8.774;2024-03-23T08:11:06;0.50;;;0.50;;
12970;SDS011;6550;48.650;8.774;2024-03-23T08:13:32;0.63;;;0.63;;
12970;SDS011;6550;48.650;8.774;2024-03-23T08:15:59;0.60;;;0.60;;
12970;SDS011;6550;48.650;8.774;2024-03-23T08:18:29;0.80;;;0.80;;
12970;SDS011;6550;48.650;8.774;2024-03-23T08:23:27;0.83;;;0.60;;
12970;SDS011;6550;48.650;8.774;2024-03-23T08:26:03;1.10;;;1.00;;
12970;SDS011;6550;48.650;8.774;2024-03-23T08:28:35;1.23;;;0.60;;
12970;SDS011;6550;48.650;8.774;2024-03-23T08:31:02;0.70;;;0.70;;
12970;SDS011;6550;48.650;8.774;2024-03-23T08:33:37;1.70;;;0.95;;
12970;SDS011;6550;48.650;8.774;2024-03-23T08:36:05;0.73;;;0.73;;
12970;SDS011;6550;48.650;8.774;2024-03-23T08:38:35;0.97;;;0.83;;
12970;SDS011;6550;48.650;8.774;2024-03-23T08:41:01;3.20;;;0.90;;
12970;SDS011;6550;48.650;8.774;2024-03-23T08:43:32;2.37;;;1.30;;
12970;SDS011;6550;48.650;8.774;2024-03-23T08:46:11;2.23;;;1.60;;
12970;SDS011;6550;48.650;8.774;2024-03-23T08:48:39;2.83;;;1.90;;
12970;SDS011;6550;48.650;8.774;2024-03-23T08:51:08;3.90;;;2.27;;
12970;SDS011;6550;48.650;8.774;2024-03-23T08:53:37;2.97;;;1.73;;
12970;SDS011;6550;48.650;8.774;2024-03-23T08:56:04;3.07;;;1.80;;
12970;SDS011;6550;48.650;8.774;2024-03-23T08:58:37;2.93;;;1.90;;
12970;SDS011;6550;48.650;8.774;2024-03-23T09:01:10;4.63;;;2.30;;
12970;SDS011;6550;48.650;8.774;2024-03-23T09:03:40;2.63;;;2.10;;
12970;SDS011;6550;48.650;8.774;2024-03-23T09:06:10;2.30;;;1.77;;
12970;SDS011;6550;48.650;8.774;2024-03-23T09:08:37;3.70;;;2.10;;
12970;SDS011;6550;48.650;8.774;2024-03-23T09:11:08;3.10;;;1.93;;
12970;SDS011;6550;48.650;8.774;2024-03-23T09:13:37;3.47;;;2.17;;
12970;SDS011;6550;48.650;8.774;2024-03-23T09:16:04;1.57;;;1.30;;
12970;SDS011;6550;48.650;8.774;2024-03-23T09:18:31;4.23;;;1.17;;
12970;SDS011;6550;48.650;8.774;2024-03-23T09:21:12;7.33;;;1.90;;
12970;SDS011;6550;48.650;8.774;2024-03-23T09:23:39;6.73;;;1.90;;
12970;SDS011;6550;48.650;8.774;2024-03-23T09:26:07;3.70;;;1.50;;
12970;SDS011;6550;48.650;8.774;2024-03-23T09:28:36;3.33;;;1.63;;
12970;SDS011;6550;48.650;8.774;2024-03-23T09:31:04;2.97;;;1.47;;
12970;SDS011;6550;48.650;8.774;2024-03-23T09:33:32;2.50;;;1.83;;
12970;SDS011;6550;48.650;8.774;2024-03-23T09:36:02;3.97;;;2.10;;
12970;SDS011;6550;48.650;8.774;2024-03-23T09:38:31;2.43;;;1.60;;
12970;SDS011;6550;48.650;8.774;2024-03-23T09:40:58;4.23;;;1.73;;
12970;SDS011;6550;48.650;8.774;2024-03-23T09:43:24;2.50;;;2.03;;
12970;SDS011;6550;48.650;8.774;2024-03-23T09:45:50;2.30;;;1.63;;
12970;SDS011;6550;48.650;8.774;2024-03-23T09:48:17;2.37;;;1.50;;
12970;SDS011;6550;48.650;8.774;2024-03-23T09:50:45;3.23;;;1.77;;
12970;SDS011;6550;48.650;8.774;2024-03-23T09:53:12;1.97;;;1.47;;
12970;SDS011;6550;48.650;8.774;2024-03-23T09:55:41;2.10;;;1.60;;
12970;SDS011;6550;48.650;8.774;2024-03-23T09:58:07;3.07;;;1.90;;
12970;SDS011;6550;48.650;8.774;2024-03-23T10:00:37;2.07;;;1.40;;
12970;SDS011;6550;48.650;8.774;2024-03-23T10:03:03;3.43;;;1.90;;
12970;SDS011;6550;48.650;8.774;2024-03-23T10:05:31;4.57;;;2.10;;
12970;SDS011;6550;48.650;8.774;2024-03-23T10:08:01;4.43;;;1.77;;
12970;SDS011;6550;48.650;8.774;2024-03-23T10:10:44;3.53;;;2.00;;
12970;SDS011;6550;48.650;8.774;2024-03-23T10:13:11;4.07;;;2.22;;
12970;SDS011;6550;48.650;8.774;2024-03-23T10:15:50;6.07;;;2.10;;
12970;SDS011;6550;48.650;8.774;2024-03-23T10:18:25;2.00;;;1.47;;
12970;SDS011;6550;48.650;8.774;2024-03-23T10:21:06;5.20;;;2.10;;
12970;SDS011;6550;48.650;8.774;2024-03-23T10:23:34;2.60;;;1.80;;
12970;SDS011;6550;48.650;8.774;2024-03-23T10:31:22;2.97;;;1.60;;
12970;SDS011;6550;48.650;8.774;2024-03-23T10:33:50;4.35;;;2.20;;
12970;SDS011;6550;48.650;8.774;2024-03-23T10:36:21;2.03;;;1.83;;
12970;SDS011;6550;48.650;8.774;2024-03-23T10:38:49;3.50;;;1.67;;
12970;SDS011;6550;48.650;8.774;2024-03-23T10:41:19;3.87;;;1.60;;
12970;SDS011;6550;48.650;8.774;2024-03-23T10:43:48;4.50;;;1.50;;
12970;SDS011;6550;48.650;8.774;2024-03-23T10:46:17;3.27;;;1.60;;
12970;SDS011;6550;48.650;8.774;2024-03-23T10:48:43;2.23;;;1.30;;
12970;SDS011;6550;48.650;8.774;2024-03-23T10:51:14;4.40;;;1.60;;
12970;SDS011;6550;48.650;8.774;2024-03-23T10:53:40;2.33;;;1.20;;
12970;SDS011;6550;48.650;8.774;2024-03-23T10:56:07;2.80;;;1.60;;
12970;SDS011;6550;48.650;8.774;2024-03-23T10:58:44;2.83;;;1.83;;
12970;SDS011;6550;48.650;8.774;2024-03-23T11:01:14;2.10;;;1.50;;
12970;SDS011;6550;48.650;8.774;2024-03-23T11:03:46;3.50;;;1.80;;
12970;SDS011;6550;48.650;8.774;2024-03-23T11:09:01;3.87;;;1.60;;
12970;SDS011;6550;48.650;8.774;2024-03-23T11:11:27;1.77;;;1.60;;
12970;SDS011;6550;48.650;8.774;2024-03-23T11:13:56;2.53;;;1.10;;
12970;SDS011;6550;48.650;8.774;2024-03-23T11:16:23;2.27;;;1.40;;
12970;SDS011;6550;48.650;8.774;2024-03-23T11:18:57;3.70;;;1.30;;
12970;SDS011;6550;48.650;8.774;2024-03-23T11:21:59;34.07;;;4.97;;
12970;SDS011;6550;48.650;8.774;2024-03-23T11:24:25;15.00;;;2.17;;
12970;SDS011;6550;48.650;8.774;2024-03-23T11:26:51;9.77;;;1.80;;
12970;SDS011;6550;48.650;8.774;2024-03-23T11:29:17;23.07;;;2.83;;
12970;SDS011;6550;48.650;8.774;2024-03-23T11:31:52;7.10;;;1.80;;
12970;SDS011;6550;48.650;8.774;2024-03-23T11:34:19;9.80;;;1.73;;
12970;SDS011;6550;48.650;8.774;2024-03-23T11:36:48;12.90;;;1.60;;
12970;SDS011;6550;48.650;8.774;2024-03-23T11:39:16;14.27;;;1.57;;
12970;SDS011;6550;48.650;8.774;2024-03-23T11:44:23;10.30;;;1.58;;
12970;SDS011;6550;48.650;8.774;2024-03-23T11:46:50;3.07;;;1.23;;
12970;SDS011;6550;48.650;8.774;2024-03-23T11:49:23;4.27;;;1.50;;
12970;SDS011;6550;48.650;8.774;2024-03-23T11:51:50;3.60;;;1.10;;
12970;SDS011;6550;48.650;8.774;2024-03-23T11:54:19;4.87;;;1.20;;
12970;SDS011;6550;48.650;8.774;2024-03-23T11:59:36;1.50;;;1.07;;
12970;SDS011;6550;48.650;8.774;2024-03-23T12:02:10;2.33;;;1.10;;
12970;SDS011;6550;48.650;8.774;2024-03-23T12:04:39;5.57;;;1.50;;
12970;SDS011;6550;48.650;8.774;2024-03-23T12:07:13;2.83;;;1.23;;
12970;SDS011;6550;48.650;8.774;2024-03-23T12:10:04;3.60;;;1.40;;
12970;SDS011;6550;48.650;8.774;2024-03-23T12:12:31;3.77;;;1.40;;
12970;SDS011;6550;48.650;8.774;2024-03-23T12:15:01;4.63;;;1.30;;
12970;SDS011;6550;48.650;8.774;2024-03-23T12:17:31;4.73;;;1.47;;
12970;SDS011;6550;48.650;8.774;2024-03-23T12:20:00;3.53;;;1.27;;
12970;SDS011;6550;48.650;8.774;2024-03-23T12:22:29;6.40;;;1.73;;
12970;SDS011;6550;48.650;8.774;2024-03-23T12:24:56;3.90;;;1.77;;
12970;SDS011;6550;48.650;8.774;2024-03-23T12:27:24;9.23;;;1.60;;
12970;SDS011;6550;48.650;8.774;2024-03-23T12:29:52;2.67;;;1.70;;
12970;SDS011;6550;48.650;8.774;2024-03-23T12:32:20;9.60;;;2.00;;
12970;SDS011;6550;48.650;8.774;2024-03-23T12:34:46;6.37;;;2.03;;
12970;SDS011;6550;48.650;8.774;2024-03-23T12:37:16;6.10;;;1.97;;
12970;SDS011;6550;48.650;8.774;2024-03-23T12:39:44;4.10;;;1.50;;
12970;SDS011;6550;48.650;8.774;2024-03-23T12:42:11;3.60;;;1.33;;
12970;SDS011;6550;48.650;8.774;2024-03-23T12:44:37;2.80;;;1.97;;
12970;SDS011;6550;48.650;8.774;2024-03-23T12:47:03;4.63;;;1.88;;
12970;SDS011;6550;48.650;8.774;2024-03-23T12:49:29;5.50;;;1.17;;
12970;SDS011;6550;48.650;8.774;2024-03-23T12:51:56;3.63;;;1.53;;
12970;SDS011;6550;48.650;8.774;2024-03-23T12:54:22;3.83;;;1.40;;
12970;SDS011;6550;48.650;8.774;2024-03-23T12:56:50;3.30;;;1.70;;
12970;SDS011;6550;48.650;8.774;2024-03-23T12:59:18;4.33;;;1.47;;
12970;SDS011;6550;48.650;8.774;2024-03-23T13:01:45;6.20;;;1.20;;
12970;SDS011;6550;48.650;8.774;2024-03-23T13:04:14;1.50;;;1.10;;
12970;SDS011;6550;48.650;8.774;2024-03-23T13:06:42;2.33;;;0.70;;
12970;SDS011;6550;48.650;8.774;2024-03-23T13:09:08;2.53;;;1.00;;
12970;SDS011;6550;48.650;8.774;2024-03-23T13:11:34;1.83;;;1.03;;
12970;SDS011;6550;48.650;8.774;2024-03-23T13:14:02;2.97;;;1.00;;
12970;SDS011;6550;48.650;8.774;2024-03-23T13:16:29;1.83;;;1.00;;
12970;SDS011;6550;48.650;8.774;2024-03-23T13:18:55;3.20;;;1.20;;
12970;SDS011;6550;48.650;8.774;2024-03-23T13:21:23;2.73;;;1.10;;
12970;SDS011;6550;48.650;8.774;2024-03-23T13:23:49;2.07;;;1.00;;
12970;SDS011;6550;48.650;8.774;2024-03-23T13:26:16;2.40;;;1.07;;
12970;SDS011;6550;48.650;8.774;2024-03-23T13:28:49;2.70;;;1.20;;
12970;SDS011;6550;48.650;8.774;2024-03-23T13:31:15;1.47;;;0.70;;
12970;SDS011;6550;48.650;8.774;2024-03-23T13:33:41;1.80;;;1.00;;
12970;SDS011;6550;48.650;8.774;2024-03-23T13:36:09;2.80;;;1.30;;
12970;SDS011;6550;48.650;8.774;2024-03-23T13:38:35;1.67;;;0.87;;
12970;SDS011;6550;48.650;8.774;2024-03-23T13:41:00;3.30;;;1.10;;
12970;SDS011;6550;48.650;8.774;2024-03-23T13:43:32;2.17;;;1.00;;
12970;SDS011;6550;48.650;8.774;2024-03-23T13:45:58;3.07;;;1.47;;
12970;SDS011;6550;48.650;8.774;2024-03-23T13:48:25;2.17;;;1.47;;
12970;SDS011;6550;48.650;8.774;2024-03-23T13:51:04;2.10;;;1.33;;
12970;SDS011;6550;48.650;8.774;2024-03-23T13:53:30;1.70;;;1.20;;
12970;SDS011;6550;48.650;8.774;2024-03-23T13:55:58;3.07;;;1.40;;
12970;SDS011;6550;48.650;8.774;2024-03-23T13:58:24;3.20;;;1.20;;
12970;SDS011;6550;48.650;8.774;2024-03-23T14:00:56;1.70;;;1.47;;
12970;SDS011;6550;48.650;8.774;2024-03-23T14:03:23;2.27;;;1.63;;
12970;SDS011;6550;48.650;8.774;2024-03-23T14:05:49;4.80;;;2.23;;
12970;SDS011;6550;48.650;8.774;2024-03-23T14:08:17;5.50;;;2.40;;
12970;SDS011;6550;48.650;8.774;2024-03-23T14:10:43;2.90;;;1.93;;
12970;SDS011;6550;48.650;8.774;2024-03-23T14:13:08;3.33;;;2.00;;
12970;SDS011;6550;48.650;8.774;2024-03-23T14:15:34;5.30;;;2.13;;
12970;SDS011;6550;48.650;8.774;2024-03-23T14:18:03;8.38;;;1.98;;
12970;SDS011;6550;48.650;8.774;2024-03-23T14:20:29;6.20;;;1.77;;
12970;SDS011;6550;48.650;8.774;2024-03-23T14:22:55;4.00;;;1.30;;
12970;SDS011;6550;48.650;8.774;2024-03-23T14:25:21;2.07;;;1.17;;
12970;SDS011;6550;48.650;8.774;2024-03-23T14:27:52;5.53;;;1.63;;
12970;SDS011;6550;48.650;8.774;2024-03-23T14:30:20;1.40;;;1.30;;
12970;SDS011;6550;48.650;8.774;2024-03-23T14:32:46;5.83;;;1.40;;
12970;SDS011;6550;48.650;8.774;2024-03-23T14:35:12;4.57;;;1.10;;
12970;SDS011;6550;48.650;8.774;2024-03-23T14:37:38;4.40;;;1.13;;
12970;SDS011;6550;48.650;8.774;2024-03-23T14:40:07;2.83;;;1.00;;
12970;SDS011;6550;48.650;8.774;2024-03-23T14:42:38;2.37;;;1.30;;
12970;SDS011;6550;48.650;8.774;2024-03-23T14:45:04;4.53;;;1.00;;
12970;SDS011;6550;48.650;8.774;2024-03-23T14:47:30;2.60;;;1.40;;
12970;SDS011;6550;48.650;8.774;2024-03-23T14:49:56;2.47;;;1.00;;
12970;SDS011;6550;48.650;8.774;2024-03-23T14:52:23;8.67;;;1.43;;
12970;SDS011;6550;48.650;8.774;2024-03-23T14:54:51;4.00;;;1.37;;
12970;SDS011;6550;48.650;8.774;2024-03-23T14:57:17;2.20;;;1.43;;
12970;SDS011;6550;48.650;8.774;2024-03-23T14:59:47;3.07;;;1.20;;
12970;SDS011;6550;48.650;8.774;2024-03-23T15:02:17;2.33;;;1.20;;
12970;SDS011;6550;48.650;8.774;2024-03-23T15:04:43;2.13;;;1.53;;
12970;SDS011;6550;48.650;8.774;2024-03-23T15:07:09;3.40;;;1.20;;
12970;SDS011;6550;48.650;8.774;2024-03-23T15:09:35;2.70;;;1.20;;
12970;SDS011;6550;48.650;8.774;2024-03-23T15:12:01;1.50;;;1.00;;
12970;SDS011;6550;48.650;8.774;2024-03-23T15:14:27;1.80;;;1.20;;
12970;SDS011;6550;48.650;8.774;2024-03-23T15:16:55;1.80;;;1.33;;
12970;SDS011;6550;48.650;8.774;2024-03-23T15:19:21;1.43;;;0.90;;
12970;SDS011;6550;48.650;8.774;2024-03-23T15:21:49;1.70;;;1.10;;
12970;SDS011;6550;48.650;8.774;2024-03-23T15:24:16;1.70;;;1.30;;
12970;SDS011;6550;48.650;8.774;2024-03-23T15:26:42;1.95;;;1.30;;
12970;SDS011;6550;48.650;8.774;2024-03-23T15:29:09;1.60;;;1.23;;
12970;SDS011;6550;48.650;8.774;2024-03-23T15:31:37;1.10;;;0.97;;
12970;SDS011;6550;48.650;8.774;2024-03-23T15:34:02;5.80;;;1.23;;
12970;SDS011;6550;48.650;8.774;2024-03-23T15:36:29;3.83;;;1.30;;
12970;SDS011;6550;48.650;8.774;2024-03-23T15:38:56;3.30;;;1.50;;
12970;SDS011;6550;48.650;8.774;2024-03-23T15:41:22;1.97;;;1.00;;
12970;SDS011;6550;48.650;8.774;2024-03-23T15:43:51;1.87;;;1.20;;
12970;SDS011;6550;48.650;8.774;2024-03-23T15:46:17;2.43;;;1.27;;
12970;SDS011;6550;48.650;8.774;2024-03-23T15:48:45;2.95;;;1.50;;
12970;SDS011;6550;48.650;8.774;2024-03-23T15:51:12;1.10;;;0.90;;
12970;SDS011;6550;48.650;8.774;2024-03-23T15:53:38;3.70;;;1.27;;
12970;SDS011;6550;48.650;8.774;2024-03-23T15:56:07;1.97;;;1.00;;
12970;SDS011;6550;48.650;8.774;2024-03-23T15:58:33;2.50;;;1.20;;
12970;SDS011;6550;48.650;8.774;2024-03-23T16:01:08;1.70;;;1.17;;
12970;SDS011;6550;48.650;8.774;2024-03-23T16:03:35;1.90;;;1.30;;
12970;SDS011;6550;48.650;8.774;2024-03-23T16:06:06;1.57;;;0.83;;
12970;SDS011;6550;48.650;8.774;2024-03-23T16:08:32;1.30;;;1.20;;
12970;SDS011;6550;48.650;8.774;2024-03-23T16:11:02;2.25;;;1.33;;
12970;SDS011;6550;48.650;8.774;2024-03-23T16:13:35;2.13;;;1.60;;
12970;SDS011;6550;48.650;8.774;2024-03-23T16:16:02;3.13;;;2.10;;